Time;durP1;ratioP1;P1;durP2;ratioP2;P2;SDS_P1;SDS_P2;PMS_P1;PMS_P2;Temp;Humidity;BMP_temperature;BMP_pressure;BME280_temperature;BME280_humidity;BME280_pressure;Samples;Min_cycle;Max_cycle;Signal;HPM_P1;HPM_P2
2022/05/25 00:00:20;;;;;;;5.03;2.40;;;;;;;10.67;88.23;100553.31;6120155;28;20082;-65
2022/05/25 00:03:15;;;;;;;5.43;2.10;;;;;;;10.54;88.35;100549.38;6130457;28;20025;-65
2022/05/25 00:06:10;;;;;;;4.70;2.17;;;;;;;10.48;88.60;100550.78;6121354;28;20052;-65
2022/05/25 00:09:06;;;;;;;4.68;2.17;;;;;;;10.43;88.56;100558.38;6130724;28;20036;-65
2022/05/25 00:12:01;;;;;;;4.17;2.00;;;;;;;10.44;88.66;100556.53;6121357;28;20028;-66
2022/05/25 00:14:56;;;;;;;4.78;1.90;;;;;;;10.50;88.86;100567.38;6123326;28;20055;-65
2022/05/25 00:17:53;;;;;;;5.80;2.50;;;;;;;10.54;88.66;100566.13;6126022;28;20029;-65
2022/05/25 00:20:49;;;;;;;3.85;2.30;;;;;;;10.70;88.50;100571.59;6124790;28;20041;-66
2022/05/25 00:23:44;;;;;;;4.22;2.65;;;;;;;10.84;87.43;100562.28;6137801;28;20055;-65
2022/05/25 00:26:39;;;;;;;3.70;2.17;;;;;;;10.82;86.87;100571.38;6126337;28;20036;-65
2022/05/25 00:29:36;;;;;;;4.97;2.20;;;;;;;10.79;86.78;100569.00;6125301;28;20036;-65
2022/05/25 00:32:31;;;;;;;3.95;1.90;;;;;;;10.66;86.76;100564.91;6125169;28;20058;-65
2022/05/25 00:35:29;;;;;;;3.87;1.90;;;;;;;10.59;86.82;100563.84;6126255;28;20044;-65
2022/05/25 00:38:24;;;;;;;4.78;2.00;;;;;;;10.64;86.52;100566.88;6125128;28;20426;-65
2022/05/25 00:41:28;;;;;;;5.40;1.90;;;;;;;10.59;86.60;100569.16;6125925;28;20036;-65
2022/05/25 00:44:23;;;;;;;3.10;1.92;;;;;;;10.54;87.06;100566.13;6126178;28;20392;-65
2022/05/25 00:47:25;;;;;;;3.27;1.60;;;;;;;10.53;86.76;100567.09;6124855;28;20025;-66
2022/05/25 00:50:22;;;;;;;3.40;1.67;;;;;;;10.54;86.66;100565.28;6124331;28;20032;-66
2022/05/25 00:53:19;;;;;;;4.50;1.83;;;;;;;10.65;86.68;100573.81;6106836;28;20090;-65
2022/05/25 00:56:17;;;;;;;4.57;2.00;;;;;;;10.58;86.26;100575.41;6107234;28;20064;-65
2022/05/25 00:59:16;;;;;;;6.68;1.70;;;;;;;10.64;86.65;100576.66;6107850;28;20036;-65
2022/05/25 01:02:12;;;;;;;2.67;1.65;;;;;;;10.63;86.08;100580.25;6131919;28;20043;-66
2022/05/25 01:05:08;;;;;;;9.50;1.73;;;;;;;10.66;86.49;100582.63;6131127;28;20064;-65
2022/05/25 01:08:22;;;;;;;4.97;1.90;;;;;;;10.58;86.46;100583.38;6125285;28;20078;-65
2022/05/25 01:11:47;;;;;;;2.88;1.73;;;;;;;10.59;86.58;100585.06;6105230;28;20045;-65
2022/05/25 01:15:14;;;;;;;3.83;1.90;;;;;;;10.58;86.28;100588.69;6106070;28;20029;-65
2022/05/25 01:18:33;;;;;;;4.35;1.67;;;;;;;10.60;86.52;100592.00;6096089;28;20118;-66
2022/05/25 01:21:37;;;;;;;4.80;2.10;;;;;;;10.66;86.50;100599.38;6110147;28;20052;-66
2022/05/25 01:24:42;;;;;;;2.45;1.55;;;;;;;10.68;86.95;100594.75;6113550;28;20027;-66
2022/05/25 01:27:38;;;;;;;5.57;1.88;;;;;;;10.70;86.43;100600.75;6110958;28;20116;-66
2022/05/25 01:30:37;;;;;;;4.00;1.90;;;;;;;10.81;86.09;100609.47;6130519;28;20098;-66
2022/05/25 01:33:43;;;;;;;5.20;1.67;;;;;;;10.61;85.57;100600.81;6107099;28;20033;-66
2022/05/25 01:36:50;;;;;;;5.32;1.80;;;;;;;10.61;85.90;100604.28;6105756;28;20391;-66
2022/05/25 01:39:53;;;;;;;4.95;1.55;;;;;;;10.64;86.04;100609.31;6134920;28;20028;-66
2022/05/25 01:43:08;;;;;;;2.65;1.70;;;;;;;10.54;85.96;100613.84;6106824;28;20033;-66
2022/05/25 01:46:31;;;;;;;4.00;1.65;;;;;;;10.50;85.92;100612.44;6105846;28;20041;-66
2022/05/25 01:49:34;;;;;;;5.93;1.83;;;;;;;10.53;85.80;100606.84;6131787;28;20040;-66
2022/05/25 01:52:35;;;;;;;3.90;1.75;;;;;;;10.60;85.65;100612.38;6105834;28;20056;-66
2022/05/25 01:55:35;;;;;;;4.03;1.55;;;;;;;10.70;85.80;100603.41;6105221;28;20067;-66
2022/05/25 01:58:36;;;;;;;4.22;1.80;;;;;;;10.79;85.13;100606.97;6106303;28;20031;-65
2022/05/25 02:01:31;;;;;;;3.47;1.80;;;;;;;10.62;85.03;100598.03;6105294;28;20089;-65
2022/05/25 02:04:26;;;;;;;3.67;1.77;;;;;;;10.65;84.81;100604.84;6128577;28;20036;-65
2022/05/25 02:07:38;;;;;;;3.50;1.60;;;;;;;10.69;84.82;100601.72;6123505;28;20463;-65
2022/05/25 02:10:55;;;;;;;3.53;2.00;;;;;;;10.70;84.54;100608.72;6121876;28;20075;-65
2022/05/25 02:14:08;;;;;;;5.03;1.52;;;;;;;10.78;84.17;100623.88;6105889;28;20037;-65
2022/05/25 02:17:38;;;;;;;7.38;1.80;;;;;;;10.78;84.05;100615.91;6111299;28;20064;-65
2022/05/25 02:20:59;;;;;;;4.22;1.83;;;;;;;10.68;83.84;100613.31;6113895;28;20039;-65
2022/05/25 02:24:00;;;;;;;5.18;1.67;;;;;;;10.63;83.77;100618.22;6114086;28;20043;-65
2022/05/25 02:27:01;;;;;;;6.63;1.70;;;;;;;10.60;84.10;100625.63;6105881;28;20123;-65
2022/05/25 02:30:02;;;;;;;5.85;1.80;;;;;;;10.61;84.83;100625.50;6106062;28;20020;-65
2022/05/25 02:33:05;;;;;;;3.42;1.55;;;;;;;10.55;84.17;100620.78;6105208;28;20058;-65
2022/05/25 02:36:00;;;;;;;4.90;1.50;;;;;;;10.47;84.24;100620.69;6104843;28;20028;-65
2022/05/25 02:38:56;;;;;;;3.85;1.90;;;;;;;10.45;84.51;100632.44;6104234;28;20032;-65
2022/05/25 02:41:54;;;;;;;4.30;1.90;;;;;;;10.53;84.46;100633.38;6122513;28;20044;-65
2022/05/25 02:44:50;;;;;;;3.63;1.80;;;;;;;10.46;84.86;100632.28;6111348;28;20459;-65
2022/05/25 02:47:45;;;;;;;4.78;1.95;;;;;;;10.40;85.01;100640.84;6109601;28;20035;-65
2022/05/25 02:50:40;;;;;;;4.33;2.10;;;;;;;10.21;84.81;100614.41;6134144;28;20047;-65
2022/05/25 02:53:35;;;;;;;4.13;1.87;;;;;;;10.36;85.52;100631.50;6127706;28;20025;-65
2022/05/25 02:56:31;;;;;;;3.47;2.00;;;;;;;10.28;85.55;100644.63;6122385;28;20040;-65
2022/05/25 02:59:26;;;;;;;6.07;2.20;;;;;;;10.18;85.63;100627.13;6121788;28;20024;-65
2022/05/25 03:02:21;;;;;;;4.03;1.60;;;;;;;10.21;85.84;100651.50;6125530;28;20039;-65
2022/05/25 03:05:17;;;;;;;5.87;1.73;;;;;;;10.14;86.07;100668.94;6122208;28;20097;-65
2022/05/25 03:08:12;;;;;;;3.95;2.00;;;;;;;10.11;86.08;100661.25;6124627;28;20036;-67
2022/05/25 03:11:08;;;;;;;4.20;1.87;;;;;;;10.13;86.34;100662.00;6123470;28;20115;-65
2022/05/25 03:14:03;;;;;;;3.40;2.15;;;;;;;10.13;86.45;100672.59;6121834;28;20788;-65
2022/05/25 03:17:08;;;;;;;5.23;1.90;;;;;;;10.19;86.44;100674.69;6121422;28;20032;-65
2022/05/25 03:20:04;;;;;;;4.20;1.70;;;;;;;10.23;86.37;100683.16;6121260;28;20104;-65
2022/05/25 03:22:59;;;;;;;3.42;1.58;;;;;;;10.19;86.34;100682.63;6131691;28;20032;-65
2022/05/25 03:25:54;;;;;;;4.33;1.90;;;;;;;10.10;86.27;100676.34;6121997;28;20039;-65
2022/05/25 03:28:50;;;;;;;4.10;1.93;;;;;;;10.16;86.24;100683.72;6121050;28;20032;-65
2022/05/25 03:31:45;;;;;;;3.37;2.00;;;;;;;10.28;86.06;100684.41;6121544;28;20036;-65
2022/05/25 03:34:40;;;;;;;3.40;1.60;;;;;;;10.16;86.47;100693.50;6121377;28;20282;-65
2022/05/25 03:37:36;;;;;;;3.63;1.73;;;;;;;10.15;87.03;100687.38;6122361;28;20036;-65
2022/05/25 03:40:32;;;;;;;3.83;1.77;;;;;;;10.09;87.11;100697.66;6121975;28;20375;-66
2022/05/25 03:43:31;;;;;;;3.58;1.60;;;;;;;9.93;87.48;100697.44;6113344;28;20036;-65
2022/05/25 03:46:26;;;;;;;3.47;1.85;;;;;;;10.10;88.10;100708.13;6121056;28;20391;-65
2022/05/25 03:49:22;;;;;;;3.27;1.93;;;;;;;10.17;88.03;100705.75;6122624;28;20032;-67
2022/05/25 03:52:21;;;;;;;2.77;1.63;;;;;;;10.18;86.55;100698.66;6140493;28;20052;-67
2022/05/25 03:55:16;;;;;;;4.30;1.80;;;;;;;10.18;86.81;100703.97;6136652;28;20032;-67
2022/05/25 03:58:12;;;;;;;3.58;1.90;;;;;;;10.23;86.32;100702.53;6125692;28;20029;-67
2022/05/25 04:01:07;;;;;;;4.20;2.03;;;;;;;10.03;86.67;100708.81;6126454;28;20046;-67
2022/05/25 04:04:03;;;;;;;4.77;1.90;;;;;;;9.90;87.30;100697.72;6133762;28;20028;-67
2022/05/25 04:06:58;;;;;;;4.93;2.42;;;;;;;9.86;87.74;100698.97;6125847;28;20068;-67
2022/05/25 04:09:53;;;;;;;4.57;2.20;;;;;;;9.83;87.63;100707.22;6125575;28;20081;-67
2022/05/25 04:12:49;;;;;;;4.13;1.80;;;;;;;9.84;88.13;100698.25;6126705;28;20040;-67
2022/05/25 04:15:45;;;;;;;6.95;2.60;;;;;;;10.05;87.82;100710.38;6125733;28;20056;-65
2022/05/25 04:18:40;;;;;;;3.00;1.60;;;;;;;10.18;88.01;100714.56;6135000;28;20809;-67
2022/05/25 04:21:35;;;;;;;3.90;1.97;;;;;;;10.52;86.60;100713.88;6125529;28;20454;-64
2022/05/25 04:24:31;;;;;;;2.90;1.85;;;;;;;10.67;86.02;100708.94;6125668;28;20090;-66
2022/05/25 04:27:26;;;;;;;3.07;1.50;;;;;;;11.35;83.90;100715.53;6124141;28;20033;-67
2022/05/25 04:30:26;;;;;;;5.10;1.70;;;;;;;11.80;80.76;100716.28;6123958;28;20353;-67
2022/05/25 04:33:21;;;;;;;4.68;1.40;;;;;;;11.97;79.67;100706.63;6129640;28;20032;-65
2022/05/25 04:36:16;;;;;;;2.73;1.60;;;;;;;12.16;78.82;100708.25;6125758;28;20035;-64
2022/05/25 04:39:12;;;;;;;2.30;1.30;;;;;;;12.27;78.15;100698.19;6125197;28;20271;-64
2022/05/25 04:42:07;;;;;;;3.67;1.53;;;;;;;12.77;75.86;100706.25;6124148;28;20047;-65
2022/05/25 04:45:03;;;;;;;3.15;1.70;;;;;;;12.66;75.56;100709.22;6125266;28;20028;-65
2022/05/25 04:48:00;;;;;;;3.22;1.95;;;;;;;12.74;75.36;100697.75;6124917;28;20028;-64
2022/05/25 04:50:56;;;;;;;3.63;1.52;;;;;;;13.08;74.20;100710.03;6124245;28;20078;-67
2022/05/25 04:53:52;;;;;;;5.43;1.80;;;;;;;13.22;73.06;100710.41;6124911;28;20032;-67
2022/05/25 05:00:05;;;;;;;5.97;1.60;;;;;;;13.39;72.29;100709.44;6123979;28;20032;-67
2022/05/25 05:03:00;;;;;;;3.70;1.90;;;;;;;13.64;71.31;100713.81;6124386;28;20032;-66
2022/05/25 05:05:56;;;;;;;5.03;1.83;;;;;;;13.84;70.74;100715.13;6124854;28;20029;-66
2022/05/25 05:08:51;;;;;;;4.32;1.85;;;;;;;13.68;72.04;100717.81;6124340;28;20282;-66
2022/05/25 05:11:47;;;;;;;3.00;1.60;;;;;;;13.54;71.95;100713.13;6123257;28;20040;-66
2022/05/25 05:14:43;;;;;;;3.25;1.80;;;;;;;13.86;70.84;100721.13;6124171;28;20096;-66
2022/05/25 05:17:39;;;;;;;5.00;1.90;;;;;;;13.87;70.85;100709.47;6124317;28;20090;-66
2022/05/25 05:20:34;;;;;;;3.60;1.93;;;;;;;14.14;70.65;100730.44;6123433;28;20036;-66
2022/05/25 05:23:30;;;;;;;3.75;1.85;;;;;;;14.21;69.65;100731.44;6124123;28;20140;-66
2022/05/25 05:26:25;;;;;;;3.27;2.17;;;;;;;14.27;69.14;100741.44;6123875;28;20511;-66
2022/05/25 05:29:22;;;;;;;4.63;2.03;;;;;;;13.97;70.28;100739.47;6124081;28;20032;-66
2022/05/25 05:32:17;;;;;;;2.83;1.65;;;;;;;14.44;69.60;100741.44;6123092;28;20476;-66
2022/05/25 05:35:13;;;;;;;5.13;2.33;;;;;;;14.74;68.21;100748.69;6123981;28;20032;-66
2022/05/25 05:38:08;;;;;;;5.50;2.20;;;;;;;15.06;67.35;100748.56;6123126;28;20847;-66
2022/05/25 05:41:03;;;;;;;5.30;2.25;;;;;;;15.22;66.91;100727.09;6122877;28;20024;-66
2022/05/25 05:43:59;;;;;;;3.90;2.10;;;;;;;15.12;68.01;100742.53;6105832;28;20383;-66
2022/05/25 05:46:56;;;;;;;4.53;2.75;;;;;;;15.52;66.38;100740.69;6123631;28;20103;-67
2022/05/25 05:49:52;;;;;;;5.50;2.35;;;;;;;15.18;68.52;100746.34;6123487;28;20064;-66
2022/05/25 05:52:48;;;;;;;5.78;2.38;;;;;;;15.78;66.80;100754.53;6122763;28;20028;-67
2022/05/25 05:55:46;;;;;;;6.32;2.75;;;;;;;15.62;65.96;100750.13;6123425;28;20101;-66
2022/05/25 05:58:41;;;;;;;6.65;3.03;;;;;;;15.51;66.30;100755.03;6123529;28;20063;-66
2022/05/25 06:01:37;;;;;;;4.67;2.83;;;;;;;15.61;66.12;100748.44;6122617;28;20464;-66
2022/05/25 06:04:32;;;;;;;9.40;3.67;;;;;;;16.26;63.95;100754.09;6123415;28;20040;-66
2022/05/25 06:07:28;;;;;;;5.60;2.95;;;;;;;16.04;64.61;100752.28;6122738;28;20062;-66
2022/05/25 06:10:23;;;;;;;6.13;2.77;;;;;;;16.29;63.78;100764.44;6122643;28;20036;-66
2022/05/25 06:13:18;;;;;;;5.30;2.80;;;;;;;16.14;63.16;100766.28;6122057;28;20289;-66
2022/05/25 06:19:29;;;;;;;4.80;3.10;;;;;;;16.63;63.33;100764.78;6122839;28;20350;-66
2022/05/25 06:22:26;;;;;;;7.20;3.58;;;;;;;16.60;62.27;100765.16;6121779;28;20047;-66
2022/05/25 06:25:21;;;;;;;6.57;3.78;;;;;;;16.67;61.76;100774.13;6122784;28;20344;-66
2022/05/25 06:28:16;;;;;;;9.65;3.58;;;;;;;16.42;63.17;100766.50;6124604;28;20024;-66
2022/05/25 06:31:12;;;;;;;7.90;3.23;;;;;;;16.41;63.28;100768.34;6120644;28;20044;-67
2022/05/25 06:34:08;;;;;;;8.98;4.00;;;;;;;16.46;63.05;100775.84;6128494;28;20036;-66
2022/05/25 06:37:04;;;;;;;8.97;4.27;;;;;;;16.22;63.08;100781.41;6122234;28;20044;-66
2022/05/25 06:40:00;;;;;;;7.60;4.15;;;;;;;16.02;63.50;100773.88;6122156;28;20024;-66
2022/05/25 06:42:56;;;;;;;7.07;4.28;;;;;;;16.06;62.59;100771.69;6124445;28;20032;-66
2022/05/25 06:45:51;;;;;;;6.57;3.97;;;;;;;16.34;63.69;100766.56;6122204;28;20036;-66
2022/05/25 06:48:48;;;;;;;8.50;4.87;;;;;;;16.52;63.71;100775.91;6123535;28;20025;-66
2022/05/25 06:51:44;;;;;;;8.93;4.35;;;;;;;16.61;62.02;100782.88;6124454;28;20031;-67
2022/05/25 06:54:40;;;;;;;10.40;4.35;;;;;;;16.49;63.47;100787.00;6132237;28;20391;-66
2022/05/25 06:57:35;;;;;;;7.88;4.43;;;;;;;16.96;63.02;100793.91;6123491;28;20040;-67
2022/05/25 07:00:31;;;;;;;7.57;4.07;;;;;;;16.46;62.96;100786.53;6122772;28;20032;-66
2022/05/25 07:03:26;;;;;;;8.33;4.00;;;;;;;16.82;62.26;100792.06;6123919;28;20286;-67
2022/05/25 07:06:23;;;;;;;9.40;4.07;;;;;;;16.91;62.17;100793.59;6125339;28;20047;-67
2022/05/25 07:09:18;;;;;;;6.53;4.25;;;;;;;16.64;62.19;100785.22;6131237;28;20036;-66
2022/05/25 07:12:13;;;;;;;7.53;4.50;;;;;;;16.73;62.42;100793.16;6121222;28;20432;-66
2022/05/25 07:15:09;;;;;;;8.13;4.65;;;;;;;16.64;61.84;100793.25;6125570;28;20028;-66
2022/05/25 07:18:05;;;;;;;9.63;3.75;;;;;;;17.05;61.96;100812.38;6122533;28;20045;-66
2022/05/25 07:21:06;;;;;;;7.68;4.43;;;;;;;16.92;62.53;100814.03;6122843;28;20087;-66
2022/05/25 07:24:02;;;;;;;8.60;4.75;;;;;;;17.30;60.87;100812.91;6130131;28;20464;-67
2022/05/25 07:26:57;;;;;;;8.75;4.65;;;;;;;17.19;60.05;100818.75;6132339;28;20042;-67
2022/05/25 07:29:53;;;;;;;9.87;5.20;;;;;;;16.69;61.61;100818.66;6121910;28;20094;-66
2022/05/25 07:32:48;;;;;;;11.63;4.97;;;;;;;17.18;60.06;100822.44;6124782;28;20028;-67
2022/05/25 07:35:43;;;;;;;7.47;4.20;;;;;;;16.98;60.81;100821.34;6127067;28;20032;-67
2022/05/25 07:38:48;;;;;;;9.63;4.67;;;;;;;17.24;62.41;100824.38;6121760;28;20278;-67
2022/05/25 07:41:49;;;;;;;9.32;4.38;;;;;;;17.98;59.14;100827.75;6120944;28;20041;-66
2022/05/25 07:44:49;;;;;;;10.68;4.60;;;;;;;18.24;56.99;100828.81;6103837;28;20033;-67
2022/05/25 07:47:44;;;;;;;11.60;4.18;;;;;;;17.81;60.48;100832.50;6102749;28;20032;-66
2022/05/25 07:50:41;;;;;;;10.07;5.17;;;;;;;16.92;61.54;100830.13;6131340;28;20094;-67
2022/05/25 07:53:55;;;;;;;9.27;4.55;;;;;;;16.52;62.25;100840.16;6103385;28;20097;-67
2022/05/25 07:56:51;;;;;;;9.48;4.70;;;;;;;16.16;62.46;100836.47;6124123;28;20271;-67
2022/05/25 07:59:46;;;;;;;10.48;4.55;;;;;;;15.86;63.77;100837.38;6121358;28;20709;-67
2022/05/25 08:05:59;;;;;;;8.07;4.63;;;;;;;16.39;65.13;100837.28;6130486;28;20758;-67
2022/05/25 08:08:55;;;;;;;9.15;4.85;;;;;;;16.64;62.36;100838.75;6105677;28;20119;-66
2022/05/25 08:11:51;;;;;;;7.63;4.38;;;;;;;17.00;60.65;100838.06;6120543;28;20036;-67
2022/05/25 08:14:47;;;;;;;7.95;3.90;;;;;;;17.39;60.29;100827.88;6121963;28;20044;-67
2022/05/25 08:17:43;;;;;;;7.32;3.40;;;;;;;17.21;59.13;100832.78;6129984;28;20483;-67
2022/05/25 08:20:38;;;;;;;7.00;3.60;;;;;;;17.20;59.64;100837.31;6121627;28;20036;-67
2022/05/25 08:23:34;;;;;;;7.65;3.90;;;;;;;17.23;59.76;100841.47;6122506;28;20024;-67
2022/05/25 08:26:29;;;;;;;12.70;3.78;;;;;;;17.76;58.75;100829.56;6123485;28;20044;-67
2022/05/25 08:29:25;;;;;;;8.20;4.17;;;;;;;17.69;56.63;100829.50;6121022;28;20024;-67
2022/05/25 08:32:20;;;;;;;6.88;3.30;;;;;;;17.35;59.65;100831.94;6125444;28;20106;-66
2022/05/25 08:35:16;;;;;;;5.95;3.20;;;;;;;17.05;60.29;100825.78;6122745;28;20437;-67
2022/05/25 08:38:11;;;;;;;6.70;2.72;;;;;;;17.28;58.11;100821.13;6130935;28;20044;-67
2022/05/25 08:41:06;;;;;;;5.80;3.30;;;;;;;17.65;55.96;100820.16;6125969;28;20040;-67
2022/05/25 08:44:03;;;;;;;4.68;2.65;;;;;;;17.67;55.58;100814.59;6128078;28;20731;-67
2022/05/25 08:47:00;;;;;;;6.93;2.53;;;;;;;17.26;56.85;100823.16;6107097;28;20472;-67
2022/05/25 08:49:55;;;;;;;3.90;2.25;;;;;;;17.56;55.84;100809.72;6124649;28;20037;-67
2022/05/25 08:52:55;;;;;;;4.53;2.40;;;;;;;18.05;54.58;100826.78;6124254;28;20433;-67
2022/05/25 08:56:03;;;;;;;5.18;2.65;;;;;;;18.05;54.85;100831.31;6136838;28;20077;-67
2022/05/25 08:59:30;;;;;;;4.63;2.80;;;;;;;17.91;54.87;100813.44;6115015;28;20059;-67
2022/05/25 09:02:34;;;;;;;4.78;2.50;;;;;;;18.44;54.99;100819.09;6114595;28;20043;-66
2022/05/25 09:06:05;;;;;;;4.00;2.13;;;;;;;18.70;54.32;100826.53;6108490;28;20039;-67
2022/05/25 09:09:16;;;;;;;7.65;1.95;;;;;;;18.64;54.81;100821.13;6113493;28;20656;-67
2022/05/25 09:12:22;;;;;;;3.47;1.92;;;;;;;18.53;53.65;100816.28;6105933;28;20039;-67
2022/05/25 09:15:23;;;;;;;4.75;1.95;;;;;;;19.18;54.27;100822.09;6130237;28;20765;-67
2022/05/25 09:18:18;;;;;;;3.90;1.90;;;;;;;19.46;48.75;100824.72;6110218;28;20119;-67
2022/05/25 09:21:20;;;;;;;5.32;1.90;;;;;;;19.63;50.84;100820.66;6104262;28;20035;-67
2022/05/25 09:24:19;;;;;;;3.25;2.03;;;;;;;19.55;48.50;100804.69;6124030;28;20529;-68
2022/05/25 09:27:16;;;;;;;3.83;2.20;;;;;;;19.38;50.37;100816.81;6123713;28;20044;-67
2022/05/25 09:30:12;;;;;;;5.32;2.47;;;;;;;19.41;53.34;100813.72;6105016;28;20082;-67
2022/05/25 09:33:14;;;;;;;4.10;1.77;;;;;;;19.17;52.63;100814.22;6106139;28;20407;-67
2022/05/25 09:36:15;;;;;;;6.25;1.55;;;;;;;19.01;51.82;100816.22;6123358;28;20495;-67
2022/05/25 09:39:26;;;;;;;2.60;1.50;;;;;;;18.75;49.12;100821.41;6106041;28;20059;-66
2022/05/25 09:42:21;;;;;;;3.53;1.70;;;;;;;18.12;50.07;100819.63;6122764;28;20480;-67
2022/05/25 09:45:17;;;;;;;3.00;1.67;;;;;;;17.98;51.46;100828.56;6121699;28;20032;-66
2022/05/25 09:48:24;;;;;;;3.92;1.77;;;;;;;18.26;51.10;100825.97;6121043;28;20052;-66
2022/05/25 09:51:43;;;;;;;3.55;1.70;;;;;;;18.96;50.41;100815.97;6121167;28;20068;-67
2022/05/25 09:54:57;;;;;;;2.92;1.80;;;;;;;18.62;51.30;100815.94;6122050;28;20031;-67
2022/05/25 09:58:02;;;;;;;3.65;1.60;;;;;;;18.67;49.44;100808.13;6105149;28;20067;-67
2022/05/25 10:01:00;;;;;;;2.38;1.30;;;;;;;18.95;50.36;100818.84;6103551;28;20498;-67
2022/05/25 10:03:56;;;;;;;2.35;1.35;;;;;;;18.86;50.76;100809.31;6104249;28;20037;-67
2022/05/25 10:06:52;;;;;;;3.28;1.70;;;;;;;18.79;47.97;100803.88;6122415;28;20032;-67
2022/05/25 10:09:51;;;;;;;4.07;2.10;;;;;;;18.66;49.78;100813.69;6128116;28;20037;-66
2022/05/25 10:12:46;;;;;;;3.70;1.60;;;;;;;19.19;49.99;100812.13;6121532;28;20078;-66
2022/05/25 10:15:42;;;;;;;4.13;1.27;;;;;;;19.87;46.75;100812.00;6122741;28;20029;-67
2022/05/25 10:18:41;;;;;;;2.57;1.40;;;;;;;20.19;44.34;100792.38;6123006;28;20039;-67
2022/05/25 10:21:36;;;;;;;4.00;1.40;;;;;;;20.36;46.27;100805.47;6121917;28;20583;-68
2022/05/25 10:24:42;;;;;;;4.20;1.60;;;;;;;20.33;44.81;100798.63;6122767;28;20033;-67
2022/05/25 10:27:43;;;;;;;2.15;1.17;;;;;;;20.13;47.46;100798.59;6122332;28;20348;-67
2022/05/25 10:37:19;;;;;;;2.72;1.30;;;;;;;19.67;46.69;100799.56;6122283;28;20067;-67
2022/05/25 10:40:22;;;;;;;1.90;1.20;;;;;;;20.11;44.92;100792.56;6121614;28;20041;-66
2022/05/25 10:43:26;;;;;;;2.60;1.20;;;;;;;20.62;45.05;100790.13;6121846;28;20033;-66
2022/05/25 10:46:22;;;;;;;2.80;1.30;;;;;;;20.23;42.19;100806.25;6121832;28;20041;-67
2022/05/25 10:49:29;;;;;;;3.25;1.35;;;;;;;19.69;45.04;100798.31;6102416;28;20032;-66
2022/05/25 10:52:32;;;;;;;3.15;1.33;;;;;;;19.76;44.59;100792.97;6103009;28;20029;-66
2022/05/25 10:56:02;;;;;;;2.75;1.50;;;;;;;20.15;43.58;100798.38;6121183;28;20032;-66
2022/05/25 10:59:13;;;;;;;2.58;1.38;;;;;;;20.15;43.07;100791.13;6090184;28;20063;-66
2022/05/25 11:02:22;;;;;;;2.35;1.40;;;;;;;20.46;41.17;100784.34;6119386;28;20119;-66
2022/05/25 11:05:37;;;;;;;2.35;1.27;;;;;;;20.28;40.75;100787.66;6103925;28;20033;-66
2022/05/25 11:09:10;;;;;;;1.88;1.35;;;;;;;20.77;44.30;100781.78;6103421;28;20044;-66
2022/05/25 11:12:27;;;;;;;2.33;1.30;;;;;;;20.55;41.61;100799.22;6117677;28;20055;-66
2022/05/25 11:15:44;;;;;;;1.85;1.10;;;;;;;21.21;39.90;100783.75;6103859;28;20033;-66
2022/05/25 11:18:52;;;;;;;2.42;1.58;;;;;;;20.84;39.62;100782.63;6121227;28;20028;-66
2022/05/25 11:22:01;;;;;;;2.85;1.50;;;;;;;20.66;41.62;100780.56;6102907;28;20033;-66
2022/05/25 11:25:12;;;;;;;3.15;1.50;;;;;;;21.15;41.42;100781.91;6103033;28;20431;-67
2022/05/25 11:28:34;;;;;;;2.88;1.40;;;;;;;21.01;42.01;100778.41;6121656;28;20131;-67
2022/05/25 11:31:43;;;;;;;2.85;1.40;;;;;;;20.92;41.83;100782.38;6120941;28;20036;-65
2022/05/25 11:35:04;;;;;;;6.25;1.40;;;;;;;20.46;42.58;100789.72;6121274;28;20036;-66
2022/05/25 11:38:19;;;;;;;3.47;1.42;;;;;;;20.53;42.28;100780.59;6103642;28;20388;-66
2022/05/25 11:41:30;;;;;;;1.77;1.30;;;;;;;20.54;41.40;100776.03;6103005;28;20062;-66
2022/05/25 11:44:31;;;;;;;2.20;1.17;;;;;;;21.02;40.10;100774.69;6121483;28;20052;-67
2022/05/25 11:47:52;;;;;;;1.90;1.10;;;;;;;21.07;39.59;100772.19;6120947;28;20456;-67
2022/05/25 11:50:58;;;;;;;1.27;1.00;;;;;;;21.24;39.58;100762.59;6102131;28;20044;-66
2022/05/25 11:54:19;;;;;;;3.65;1.20;;;;;;;21.45;41.93;100774.09;6120914;28;20029;-66
2022/05/25 11:57:20;;;;;;;4.28;1.50;;;;;;;21.79;41.21;100771.03;6121014;28;20392;-67
2022/05/25 12:00:54;;;;;;;3.63;1.38;;;;;;;21.77;39.16;100767.69;6102342;28;20078;-67
2022/05/25 12:03:59;;;;;;;2.92;1.70;;;;;;;22.08;40.67;100766.88;6120716;28;20035;-66
2022/05/25 12:07:22;;;;;;;1.92;1.20;;;;;;;22.21;40.03;100759.50;6119329;28;20028;-67
2022/05/25 12:10:37;;;;;;;4.20;1.25;;;;;;;21.81;40.33;100758.13;6120894;28;20080;-66
2022/05/25 12:13:41;;;;;;;1.50;1.10;;;;;;;21.55;40.02;100761.00;6104926;28;20123;-66
2022/05/25 12:16:40;;;;;;;3.05;0.80;;;;;;;21.59;37.02;100749.53;6123392;28;20039;-66
2022/05/25 12:19:36;;;;;;;1.73;0.75;;;;;;;21.06;39.86;100759.72;6125365;28;20033;-66
2022/05/25 12:22:34;;;;;;;1.35;0.70;;;;;;;21.12;41.69;100756.19;6123747;28;20036;-66
2022/05/25 12:25:30;;;;;;;1.35;0.75;;;;;;;21.68;38.93;100753.66;6125096;28;20029;-66
2022/05/25 12:28:33;;;;;;;1.15;0.65;;;;;;;22.52;39.96;100761.31;6107031;28;20170;-66
2022/05/25 12:31:30;;;;;;;1.63;0.60;;;;;;;22.34;36.25;100753.19;6106270;28;20111;-66
2022/05/25 12:34:40;;;;;;;1.20;0.60;;;;;;;21.72;39.00;100764.81;6124995;28;20037;-67
2022/05/25 12:37:40;;;;;;;2.85;0.90;;;;;;;21.83;37.03;100761.44;6106819;28;20032;-66
2022/05/25 12:40:47;;;;;;;1.13;0.80;;;;;;;21.14;39.62;100753.31;6105961;28;20032;-66
2022/05/25 12:43:45;;;;;;;0.50;0.50;;;;;;;21.51;41.38;100759.75;6124719;28;20032;-66
2022/05/25 12:50:33;;;;;;;1.50;0.60;;;;;;;21.95;40.34;100778.63;6109210;28;20032;-66
2022/05/25 12:53:41;;;;;;;2.60;0.70;;;;;;;21.85;37.79;100776.34;6124511;28;20035;-66
2022/05/25 12:56:37;;;;;;;1.40;0.70;;;;;;;21.96;37.69;100766.75;6123890;28;20488;-67
2022/05/25 12:59:35;;;;;;;2.65;0.98;;;;;;;21.96;38.23;100772.16;6106832;28;20086;-66
2022/05/25 13:02:31;;;;;;;2.55;0.70;;;;;;;21.78;40.66;100772.06;6123508;28;20383;-66
2022/05/25 13:05:57;;;;;;;2.25;0.77;;;;;;;22.35;38.84;100771.03;6124627;28;20035;-67
2022/05/25 13:08:53;;;;;;;0.88;0.60;;;;;;;22.08;36.79;100766.88;6093955;28;20043;-67
2022/05/25 13:11:55;;;;;;;1.73;0.90;;;;;;;21.41;38.10;100767.50;6123315;28;20036;-66
2022/05/25 13:14:53;;;;;;;1.83;0.70;;;;;;;21.46;37.70;100755.03;6124962;28;20040;-67
2022/05/25 13:17:50;;;;;;;0.93;0.40;;;;;;;21.93;39.12;100772.63;6124482;28;20032;-67
2022/05/25 13:20:48;;;;;;;2.45;0.70;;;;;;;21.61;37.56;100779.84;6104720;28;20060;-66
2022/05/25 13:23:52;;;;;;;1.35;0.88;;;;;;;21.30;39.22;100769.84;6123781;28;20032;-66
2022/05/25 13:26:53;;;;;;;2.50;0.80;;;;;;;21.34;38.63;100770.22;6123607;28;20594;-66
2022/05/25 13:30:18;;;;;;;1.33;0.60;;;;;;;21.01;38.27;100767.63;6105618;28;20041;-66
2022/05/25 13:33:19;;;;;;;1.27;0.60;;;;;;;20.84;40.06;100769.13;6110462;28;20036;-67
2022/05/25 13:36:20;;;;;;;1.83;0.65;;;;;;;21.12;39.14;100767.00;6123597;28;20033;-67
2022/05/25 13:39:19;;;;;;;1.63;0.70;;;;;;;21.67;39.41;100759.25;6106098;28;20036;-67
2022/05/25 13:42:15;;;;;;;1.15;0.63;;;;;;;22.49;38.84;100765.28;6122254;28;20036;-68
2022/05/25 13:45:19;;;;;;;8.73;4.45;;;;;;;22.47;37.29;100766.56;6123156;28;20089;-67
2022/05/25 13:48:18;;;;;;;3.75;0.70;;;;;;;21.81;35.14;100771.63;6104656;28;20072;-67
2022/05/25 13:51:19;;;;;;;2.67;0.60;;;;;;;21.73;35.11;100766.47;6122726;28;20036;-66
2022/05/25 13:54:24;;;;;;;2.38;0.75;;;;;;;22.01;37.01;100758.03;6122419;28;20041;-67
2022/05/25 13:57:32;;;;;;;1.83;0.70;;;;;;;22.46;36.63;100764.91;6123684;28;20033;-66
2022/05/25 14:00:27;;;;;;;1.95;0.60;;;;;;;22.38;35.98;100766.00;6122571;28;20060;-66
2022/05/25 14:03:26;;;;;;;1.60;0.60;;;;;;;22.32;35.71;100756.09;6123262;28;20035;-66
2022/05/25 14:06:22;;;;;;;0.75;0.52;;;;;;;22.29;37.26;100751.13;6105274;28;20071;-67
2022/05/25 14:12:31;;;;;;;2.08;0.93;;;;;;;21.80;36.68;100743.78;6107251;28;20044;-67
2022/05/25 14:15:27;;;;;;;2.37;0.50;;;;;;;21.02;38.07;100760.34;6122296;28;20475;-66
2022/05/25 14:18:22;;;;;;;1.27;0.70;;;;;;;21.02;38.69;100754.97;6122117;28;20316;-67
2022/05/25 14:21:38;;;;;;;2.78;0.68;;;;;;;21.14;38.70;100767.63;6120954;28;20477;-67